createdAt,value
2018-03-31T00:00:39.296Z,990.06
2018-03-31T00:01:39.271Z,990.03
2018-03-31T00:02:39.259Z,990.07
2018-03-31T00:03:39.259Z,990.02
2018-03-31T00:04:39.234Z,990.02
2018-03-31T00:05:39.228Z,990.03
2018-03-31T00:06:39.208Z,990.04
2018-03-31T00:07:39.193Z,990.07
2018-03-31T00:08:39.182Z,990.10
2018-03-31T00:09:39.186Z,990.11
2018-03-31T00:10:39.174Z,990.11
2018-03-31T00:11:39.143Z,990.09
2018-03-31T00:12:39.132Z,990.04
2018-03-31T00:13:39.116Z,990.08
2018-03-31T00:14:39.103Z,990.07
2018-03-31T00:15:39.106Z,990.03
2018-03-31T00:16:39.079Z,990.00
2018-03-31T00:17:39.065Z,989.99
2018-03-31T00:18:39.053Z,989.93
2018-03-31T00:19:39.038Z,989.91
2018-03-31T00:20:39.026Z,989.94
2018-03-31T00:21:39.027Z,989.92
2018-03-31T00:22:39.001Z,989.92
2018-03-31T00:23:38.988Z,989.89
2018-03-31T00:24:38.975Z,989.89
2018-03-31T00:25:38.961Z,989.86
2018-03-31T00:26:38.960Z,989.84
2018-03-31T00:27:38.937Z,989.82
2018-03-31T00:28:38.925Z,989.80
2018-03-31T00:29:38.910Z,989.76
2018-03-31T00:30:38.898Z,989.77
2018-03-31T00:31:38.895Z,989.77
2018-03-31T00:32:38.873Z,989.75
2018-03-31T00:33:38.859Z,989.75
2018-03-31T00:34:38.847Z,989.78
2018-03-31T00:35:38.834Z,989.74
2018-03-31T00:36:39.082Z,989.75
2018-03-31T00:37:38.807Z,989.77
2018-03-31T00:38:38.796Z,989.72
2018-03-31T00:39:38.781Z,989.73
2018-03-31T00:40:38.770Z,989.71
2018-03-31T00:41:38.757Z,989.73
2018-03-31T00:42:38.758Z,989.76
2018-03-31T00:43:38.738Z,989.79
2018-03-31T00:44:38.718Z,989.77
2018-03-31T00:45:38.706Z,989.84
2018-03-31T00:46:38.691Z,989.84
2018-03-31T00:47:38.688Z,989.84
2018-03-31T00:48:38.666Z,989.82
2018-03-31T00:49:38.653Z,989.81
2018-03-31T00:50:38.640Z,989.76
2018-03-31T00:51:38.626Z,989.76
2018-03-31T00:52:38.629Z,989.77
2018-03-31T00:53:38.602Z,989.72
2018-03-31T00:54:38.587Z,989.74
2018-03-31T00:55:38.576Z,989.79
2018-03-31T00:56:38.567Z,989.87
2018-03-31T00:57:38.562Z,989.86
2018-03-31T00:58:38.537Z,989.89
2018-03-31T00:59:38.524Z,989.89
2018-03-31T01:00:38.512Z,989.86
2018-03-31T01:01:38.498Z,989.90
2018-03-31T01:02:38.499Z,989.86
2018-03-31T01:03:38.475Z,989.87
2018-03-31T01:04:38.465Z,989.83
2018-03-31T01:05:38.447Z,989.83
2018-03-31T01:06:38.433Z,989.86
2018-03-31T01:07:38.420Z,989.85
2018-03-31T01:08:38.419Z,989.88
2018-03-31T01:09:38.396Z,989.89
2018-03-31T01:10:38.382Z,989.91
2018-03-31T01:11:38.368Z,989.91
2018-03-31T01:12:38.372Z,989.90
2018-03-31T01:13:38.343Z,989.89
2018-03-31T01:14:38.331Z,989.88
2018-03-31T01:15:38.318Z,989.91
2018-03-31T01:16:38.308Z,989.90
2018-03-31T01:17:38.292Z,989.91
2018-03-31T01:18:38.296Z,989.92
2018-03-31T01:19:38.267Z,989.91
2018-03-31T01:20:38.253Z,989.93
2018-03-31T01:21:38.239Z,989.90
2018-03-31T01:22:38.228Z,989.87
2018-03-31T01:23:38.225Z,989.88
2018-03-31T01:24:38.202Z,989.87
2018-03-31T01:25:38.189Z,989.87
2018-03-31T01:26:38.175Z,989.90
2018-03-31T01:27:38.163Z,989.90
2018-03-31T01:28:38.166Z,989.88
2018-03-31T01:29:38.137Z,989.86
2018-03-31T01:30:38.128Z,989.85
2018-03-31T01:31:38.111Z,989.80
2018-03-31T01:32:38.100Z,989.82
2018-03-31T01:33:38.086Z,989.85
2018-03-31T01:34:38.083Z,989.84
2018-03-31T01:35:38.062Z,989.82
2018-03-31T01:36:38.049Z,989.82
2018-03-31T01:37:38.034Z,989.85
2018-03-31T01:38:38.029Z,989.85
2018-03-31T01:39:38.023Z,989.84
2018-03-31T01:40:37.996Z,989.83
2018-03-31T01:41:37.982Z,989.84
2018-03-31T01:42:37.968Z,989.86
2018-03-31T01:43:37.959Z,989.81
2018-03-31T01:44:37.956Z,989.83
2018-03-31T01:45:37.930Z,989.82
2018-03-31T01:46:37.923Z,989.85
2018-03-31T01:47:37.905Z,989.80
2018-03-31T01:48:37.893Z,989.79
2018-03-31T01:49:37.890Z,989.80
2018-03-31T01:50:37.865Z,989.81
2018-03-31T01:51:37.853Z,989.79
2018-03-31T01:52:37.841Z,989.79
2018-03-31T01:53:37.828Z,989.76
2018-03-31T01:54:38.086Z,989.72
2018-03-31T01:55:37.803Z,989.78
2018-03-31T01:56:37.790Z,989.79
2018-03-31T01:57:37.775Z,989.78
2018-03-31T01:58:37.763Z,989.79
2018-03-31T01:59:37.779Z,989.83
2018-03-31T02:00:37.748Z,989.80
2018-03-31T02:01:37.728Z,989.84
2018-03-31T02:02:37.712Z,989.80
2018-03-31T02:03:37.701Z,989.81
2018-03-31T02:04:37.687Z,989.86
2018-03-31T02:05:37.684Z,989.86
2018-03-31T02:06:37.661Z,989.83
2018-03-31T02:07:37.647Z,989.87
2018-03-31T02:08:37.634Z,989.85
2018-03-31T02:09:37.624Z,989.81
2018-03-31T02:10:37.618Z,989.84
2018-03-31T02:11:37.595Z,989.84
2018-03-31T02:12:37.645Z,989.82
2018-03-31T02:13:37.569Z,989.84
2018-03-31T02:14:37.552Z,989.86
2018-03-31T02:15:37.555Z,989.90
2018-03-31T02:16:37.531Z,989.94
2018-03-31T02:17:37.515Z,989.93
2018-03-31T02:18:37.505Z,989.93
2018-03-31T02:19:37.492Z,989.94
2018-03-31T02:20:37.496Z,989.96
2018-03-31T02:21:37.466Z,989.94
2018-03-31T02:22:37.454Z,989.93
2018-03-31T02:23:37.441Z,989.94
2018-03-31T02:24:37.437Z,989.89
2018-03-31T02:25:37.415Z,989.92
2018-03-31T02:26:37.414Z,989.94
2018-03-31T02:27:37.389Z,989.94
2018-03-31T02:28:37.377Z,989.90
2018-03-31T02:29:37.363Z,989.89
2018-03-31T02:30:37.351Z,989.90
2018-03-31T02:31:37.348Z,989.91
2018-03-31T02:32:37.326Z,989.92
2018-03-31T02:33:37.313Z,989.93
2018-03-31T02:34:37.299Z,989.97
2018-03-31T02:35:37.286Z,989.97
2018-03-31T02:36:37.286Z,989.99
2018-03-31T02:37:37.262Z,990.04
2018-03-31T02:38:37.249Z,990.08
2018-03-31T02:39:37.234Z,990.05
2018-03-31T02:40:37.222Z,990.12
2018-03-31T02:41:37.219Z,990.09
2018-03-31T02:42:37.197Z,990.13
2018-03-31T02:43:37.183Z,990.13
2018-03-31T02:44:37.172Z,990.13
2018-03-31T02:45:37.157Z,990.12
2018-03-31T02:46:37.172Z,990.12
2018-03-31T02:47:37.131Z,990.12
2018-03-31T02:48:37.119Z,990.09
2018-03-31T02:49:37.104Z,990.03
2018-03-31T02:50:37.094Z,990.06
2018-03-31T02:51:37.118Z,990.06
2018-03-31T02:52:37.069Z,990.11
2018-03-31T02:53:37.056Z,990.16
2018-03-31T02:54:37.103Z,990.23
2018-03-31T02:55:37.028Z,990.27
2018-03-31T02:56:37.015Z,990.27
2018-03-31T02:57:37.013Z,990.27
2018-03-31T02:58:36.990Z,990.29
2018-03-31T02:59:36.981Z,990.25
2018-03-31T03:00:36.960Z,990.20
2018-03-31T03:01:36.951Z,990.19
2018-03-31T03:02:36.951Z,990.24
2018-03-31T03:03:36.928Z,990.24
2018-03-31T03:04:36.914Z,990.25
2018-03-31T03:05:36.898Z,990.28
2018-03-31T03:06:36.885Z,990.25
2018-03-31T03:07:36.884Z,990.26
2018-03-31T03:08:36.863Z,990.23
2018-03-31T03:09:36.846Z,990.24
2018-03-31T03:10:36.834Z,990.22
2018-03-31T03:11:36.823Z,990.19
2018-03-31T03:12:36.820Z,990.20
2018-03-31T03:13:36.796Z,990.22
2018-03-31T03:14:36.783Z,990.18
2018-03-31T03:15:36.769Z,990.18
2018-03-31T03:16:36.757Z,990.18
2018-03-31T03:17:36.754Z,990.24
2018-03-31T03:18:36.731Z,990.25
2018-03-31T03:19:36.721Z,990.29
2018-03-31T03:20:36.706Z,990.29
2018-03-31T03:21:36.692Z,990.31
2018-03-31T03:22:36.694Z,990.29
2018-03-31T03:23:36.667Z,990.29
2018-03-31T03:24:36.663Z,990.30
2018-03-31T03:25:36.640Z,990.31
2018-03-31T03:26:36.628Z,990.30
2018-03-31T03:27:36.616Z,990.31
2018-03-31T03:28:36.613Z,990.31
2018-03-31T03:29:36.588Z,990.33
2018-03-31T03:30:36.578Z,990.33
2018-03-31T03:31:36.565Z,990.31
2018-03-31T03:32:36.550Z,990.31
2018-03-31T03:33:36.552Z,990.33
2018-03-31T03:34:36.524Z,990.30
2018-03-31T03:35:36.514Z,990.29
2018-03-31T03:36:36.498Z,990.33
2018-03-31T03:37:36.484Z,990.29
2018-03-31T03:38:36.483Z,990.26
2018-03-31T03:39:36.460Z,990.29
2018-03-31T03:40:36.447Z,990.29
2018-03-31T03:41:36.433Z,990.24
2018-03-31T03:42:36.420Z,990.27
2018-03-31T03:43:36.419Z,990.27
2018-03-31T03:44:36.396Z,990.29
2018-03-31T03:45:36.384Z,990.28
2018-03-31T03:46:36.369Z,990.25
2018-03-31T03:47:36.355Z,990.27
2018-03-31T03:48:36.360Z,990.28
2018-03-31T03:49:36.329Z,990.27
2018-03-31T03:50:36.317Z,990.31
2018-03-31T03:51:36.305Z,990.32
2018-03-31T03:52:36.291Z,990.29
2018-03-31T03:53:36.278Z,990.33
2018-03-31T03:54:36.280Z,990.33
2018-03-31T03:55:36.255Z,990.35
2018-03-31T03:56:36.239Z,990.35
2018-03-31T03:57:36.226Z,990.30
2018-03-31T03:58:36.214Z,990.30
2018-03-31T03:59:36.210Z,990.25
2018-03-31T04:00:36.187Z,990.28
2018-03-31T04:01:36.185Z,990.26
2018-03-31T04:02:36.162Z,990.25
2018-03-31T04:03:36.150Z,990.32
2018-03-31T04:04:36.147Z,990.30
2018-03-31T04:05:36.123Z,990.35
2018-03-31T04:06:36.110Z,990.38
2018-03-31T04:07:36.103Z,990.40
2018-03-31T04:08:36.084Z,990.38
2018-03-31T04:09:36.081Z,990.37
2018-03-31T04:10:36.058Z,990.40
2018-03-31T04:11:36.045Z,990.45
2018-03-31T04:12:36.033Z,990.44
2018-03-31T04:13:36.018Z,990.47
2018-03-31T04:14:36.016Z,990.46
2018-03-31T04:15:35.995Z,990.46
2018-03-31T04:16:35.988Z,990.42
2018-03-31T04:17:35.965Z,990.41
2018-03-31T04:18:35.955Z,990.37
2018-03-31T04:19:35.942Z,990.37
2018-03-31T04:20:35.939Z,990.37
2018-03-31T04:21:35.916Z,990.41
2018-03-31T04:22:35.902Z,990.40
2018-03-31T04:23:35.889Z,990.37
2018-03-31T04:24:35.881Z,990.39
2018-03-31T04:25:35.875Z,990.40
2018-03-31T04:26:35.851Z,990.42
2018-03-31T04:27:35.841Z,990.44
2018-03-31T04:28:35.826Z,990.41
2018-03-31T04:29:35.811Z,990.40
2018-03-31T04:30:35.809Z,990.45
2018-03-31T04:31:35.785Z,990.42
2018-03-31T04:32:35.773Z,990.41
2018-03-31T04:33:35.760Z,990.43
2018-03-31T04:34:35.748Z,990.42
2018-03-31T04:35:35.749Z,990.43
2018-03-31T04:36:35.729Z,990.42
2018-03-31T04:37:35.708Z,990.47
2018-03-31T04:38:35.695Z,990.46
2018-03-31T04:39:35.683Z,990.44
2018-03-31T04:40:35.679Z,990.48
2018-03-31T04:41:35.656Z,990.46
2018-03-31T04:42:35.646Z,990.48
2018-03-31T04:43:35.631Z,990.49
2018-03-31T04:44:35.617Z,990.48
2018-03-31T04:45:35.620Z,990.45
2018-03-31T04:46:35.592Z,990.43
2018-03-31T04:47:35.581Z,990.44
2018-03-31T04:48:35.566Z,990.44
2018-03-31T04:49:35.551Z,990.41
2018-03-31T04:50:35.542Z,990.43
2018-03-31T04:51:35.537Z,990.42
2018-03-31T04:52:35.514Z,990.39
2018-03-31T04:53:35.501Z,990.38
2018-03-31T04:54:35.487Z,990.41
2018-03-31T04:55:35.480Z,990.39
2018-03-31T04:56:35.473Z,990.42
2018-03-31T04:57:35.454Z,990.44
2018-03-31T04:58:35.434Z,990.43
2018-03-31T04:59:35.423Z,990.47
2018-03-31T05:00:35.409Z,990.49
2018-03-31T05:01:35.406Z,990.46
2018-03-31T05:02:35.384Z,990.47
2018-03-31T05:03:35.371Z,990.47
2018-03-31T05:04:35.358Z,990.49
2018-03-31T05:05:35.344Z,990.48
2018-03-31T05:06:35.342Z,990.49
2018-03-31T05:07:35.320Z,990.49
2018-03-31T05:08:35.307Z,990.53
2018-03-31T05:09:35.293Z,990.53
2018-03-31T05:10:35.290Z,990.56
2018-03-31T05:11:35.281Z,990.52
2018-03-31T05:12:35.253Z,990.52
2018-03-31T05:13:35.239Z,990.51
2018-03-31T05:14:35.227Z,990.48
2018-03-31T05:15:35.218Z,990.43
2018-03-31T05:16:35.202Z,990.39
2018-03-31T05:17:35.198Z,990.38
2018-03-31T05:18:35.176Z,990.35
2018-03-31T05:19:35.162Z,990.36
2018-03-31T05:20:35.152Z,990.35
2018-03-31T05:21:35.138Z,990.33
2018-03-31T05:22:35.135Z,990.33
2018-03-31T05:23:35.109Z,990.31
2018-03-31T05:24:35.097Z,990.28
2018-03-31T05:25:35.083Z,990.32
2018-03-31T05:26:35.071Z,990.33
2018-03-31T05:27:35.069Z,990.34
2018-03-31T05:28:35.044Z,990.34
2018-03-31T05:29:35.030Z,990.38
2018-03-31T05:30:35.018Z,990.36
2018-03-31T05:31:35.004Z,990.38
2018-03-31T05:32:35.008Z,990.37
2018-03-31T05:33:34.982Z,990.38
2018-03-31T05:34:34.965Z,990.35
2018-03-31T05:35:34.951Z,990.34
2018-03-31T05:36:34.939Z,990.34
2018-03-31T05:37:34.937Z,990.33
2018-03-31T05:38:34.911Z,990.33
2018-03-31T05:39:34.899Z,990.33
2018-03-31T05:40:34.884Z,990.37
2018-03-31T05:41:34.875Z,990.37
2018-03-31T05:42:34.892Z,990.35
2018-03-31T05:43:34.845Z,990.41
2018-03-31T05:44:34.834Z,990.39
2018-03-31T05:45:34.818Z,990.44
2018-03-31T05:46:34.805Z,990.41
2018-03-31T05:47:34.793Z,990.41
2018-03-31T05:48:34.826Z,990.49
2018-03-31T05:49:34.764Z,990.45
2018-03-31T05:50:34.753Z,990.49
2018-03-31T05:51:34.737Z,990.54
2018-03-31T05:52:34.726Z,990.57
2018-03-31T05:53:34.722Z,990.56
2018-03-31T05:54:34.700Z,990.57
2018-03-31T05:55:34.686Z,990.56
2018-03-31T05:56:34.673Z,990.58
2018-03-31T05:57:34.660Z,990.57
2018-03-31T05:58:34.667Z,990.63
2018-03-31T05:59:34.634Z,990.60
2018-03-31T06:00:34.619Z,990.62
2018-03-31T06:01:34.606Z,990.65
2018-03-31T06:02:34.753Z,990.66
2018-03-31T06:03:34.624Z,990.65
2018-03-31T06:04:34.566Z,990.64
2018-03-31T06:05:34.552Z,990.66
2018-03-31T06:06:34.541Z,990.72
2018-03-31T06:07:34.530Z,990.72
2018-03-31T06:08:34.528Z,990.71
2018-03-31T06:09:34.501Z,990.76
2018-03-31T06:10:34.532Z,990.78
2018-03-31T06:11:34.476Z,990.77
2018-03-31T06:12:34.463Z,990.75
2018-03-31T06:13:34.448Z,990.72
2018-03-31T06:14:34.462Z,990.76
2018-03-31T06:15:34.424Z,990.75
2018-03-31T06:16:34.409Z,990.75
2018-03-31T06:17:34.394Z,990.76
2018-03-31T06:18:34.382Z,990.77
2018-03-31T06:19:34.380Z,990.81
2018-03-31T06:20:34.356Z,990.81
2018-03-31T06:21:34.342Z,990.80
2018-03-31T06:22:34.331Z,990.83
2018-03-31T06:23:34.316Z,990.83
2018-03-31T06:24:34.319Z,990.79
2018-03-31T06:25:34.296Z,990.85
2018-03-31T06:26:34.277Z,990.81
2018-03-31T06:27:34.264Z,990.82
2018-03-31T06:28:34.251Z,990.85
2018-03-31T06:29:34.246Z,990.87
2018-03-31T06:30:34.279Z,990.87
2018-03-31T06:31:34.211Z,990.90
2018-03-31T06:32:34.197Z,990.89
2018-03-31T06:33:34.182Z,990.89
2018-03-31T06:34:34.434Z,990.90
2018-03-31T06:35:34.162Z,990.85
2018-03-31T06:36:34.154Z,990.90
2018-03-31T06:37:34.127Z,990.85
2018-03-31T06:38:34.112Z,990.85
2018-03-31T06:39:34.113Z,990.87
2018-03-31T06:40:34.115Z,990.84
2018-03-31T06:41:34.077Z,990.81
2018-03-31T06:42:34.066Z,990.78
2018-03-31T06:43:34.052Z,990.78
2018-03-31T06:44:34.040Z,990.79
2018-03-31T06:45:34.035Z,990.80
2018-03-31T06:46:34.013Z,990.82
2018-03-31T06:47:34.000Z,990.82
2018-03-31T06:48:33.990Z,990.83
2018-03-31T06:49:34.016Z,990.84
2018-03-31T06:50:33.970Z,990.88
2018-03-31T06:51:33.948Z,990.90
2018-03-31T06:52:33.938Z,990.88
2018-03-31T06:53:33.920Z,990.84
2018-03-31T06:54:33.907Z,990.84
2018-03-31T06:55:33.907Z,990.86
2018-03-31T06:56:33.882Z,990.85
2018-03-31T06:57:33.868Z,990.84
2018-03-31T06:58:33.855Z,990.85
2018-03-31T06:59:33.842Z,990.85
2018-03-31T07:00:33.845Z,990.86
2018-03-31T07:01:33.816Z,990.85
2018-03-31T07:02:33.803Z,990.87
2018-03-31T07:03:33.791Z,990.86
2018-03-31T07:04:33.777Z,990.87
2018-03-31T07:05:33.764Z,990.88
2018-03-31T07:06:33.768Z,990.91
2018-03-31T07:07:33.737Z,990.89
2018-03-31T07:08:33.733Z,990.91
2018-03-31T07:09:33.711Z,990.92
2018-03-31T07:10:33.697Z,990.94
2018-03-31T07:11:33.699Z,990.91
2018-03-31T07:12:33.679Z,990.94
2018-03-31T07:13:33.659Z,990.91
2018-03-31T07:14:33.648Z,990.94
2018-03-31T07:15:33.686Z,990.90
2018-03-31T07:16:33.632Z,990.91
2018-03-31T07:17:33.606Z,990.91
2018-03-31T07:18:33.593Z,990.92
2018-03-31T07:19:33.583Z,990.94
2018-03-31T07:20:33.567Z,990.94
2018-03-31T07:21:33.565Z,990.89
2018-03-31T07:22:33.541Z,990.93
2018-03-31T07:23:33.527Z,990.90
2018-03-31T07:24:33.514Z,990.89
2018-03-31T07:25:33.501Z,990.94
2018-03-31T07:26:33.498Z,990.92
2018-03-31T07:27:33.474Z,990.93
2018-03-31T07:28:33.463Z,990.93
2018-03-31T07:29:33.495Z,990.90
2018-03-31T07:30:33.436Z,990.93
2018-03-31T07:31:33.456Z,990.93
2018-03-31T07:32:33.411Z,990.92
2018-03-31T07:33:33.396Z,990.93
2018-03-31T07:34:33.386Z,990.88
2018-03-31T07:35:33.373Z,990.95
2018-03-31T07:36:33.359Z,990.88
2018-03-31T07:37:33.355Z,990.93
2018-03-31T07:38:33.330Z,990.88
2018-03-31T07:39:33.318Z,990.94
2018-03-31T07:40:33.306Z,990.96
2018-03-31T07:41:33.286Z,990.94
2018-03-31T07:42:33.291Z,990.95
2018-03-31T07:43:33.267Z,991.00
2018-03-31T07:44:33.253Z,990.99
2018-03-31T07:45:33.239Z,991.00
2018-03-31T07:46:33.226Z,990.98
2018-03-31T07:47:33.223Z,990.97
2018-03-31T07:48:33.199Z,991.00
2018-03-31T07:49:33.198Z,990.98
2018-03-31T07:50:33.175Z,990.97
2018-03-31T07:51:33.161Z,990.97
2018-03-31T07:52:33.160Z,990.98
2018-03-31T07:53:33.132Z,990.94
2018-03-31T07:54:33.120Z,990.92
2018-03-31T07:55:33.107Z,990.96
2018-03-31T07:56:33.096Z,990.97
2018-03-31T07:57:33.097Z,990.92
2018-03-31T07:58:33.069Z,990.94
2018-03-31T07:59:33.055Z,990.89
2018-03-31T08:00:33.042Z,990.91
2018-03-31T08:01:33.029Z,990.90
2018-03-31T08:02:33.035Z,990.89
2018-03-31T08:03:33.003Z,990.87
2018-03-31T08:04:32.990Z,990.88
2018-03-31T08:05:32.976Z,990.87
2018-03-31T08:06:32.964Z,990.91
2018-03-31T08:07:32.951Z,990.88
2018-03-31T08:08:32.948Z,990.93
2018-03-31T08:09:32.924Z,990.92
2018-03-31T08:10:32.914Z,990.92
2018-03-31T08:11:32.897Z,990.92
2018-03-31T08:12:32.885Z,990.91
2018-03-31T08:13:32.882Z,990.90
2018-03-31T08:14:32.870Z,990.91
2018-03-31T08:15:32.845Z,990.90
2018-03-31T08:16:32.838Z,990.86
2018-03-31T08:17:32.817Z,990.84
2018-03-31T08:18:32.816Z,990.84
2018-03-31T08:19:32.793Z,990.88
2018-03-31T08:20:32.779Z,990.84
2018-03-31T08:21:32.765Z,990.81
2018-03-31T08:22:32.754Z,990.80
2018-03-31T08:23:32.751Z,990.81
2018-03-31T08:24:32.768Z,990.83
2018-03-31T08:25:32.715Z,990.85
2018-03-31T08:26:32.704Z,990.86
2018-03-31T08:27:32.688Z,990.88
2018-03-31T08:28:32.960Z,990.85
2018-03-31T08:29:32.661Z,990.82
2018-03-31T08:30:32.693Z,990.81
2018-03-31T08:31:32.634Z,990.82
2018-03-31T08:32:32.623Z,990.82
2018-03-31T08:33:32.608Z,990.78
2018-03-31T08:34:32.604Z,990.80
2018-03-31T08:35:32.582Z,990.79
2018-03-31T08:36:32.570Z,990.78
2018-03-31T08:37:32.562Z,990.77
2018-03-31T08:38:32.544Z,990.75
2018-03-31T08:39:32.542Z,990.78
2018-03-31T08:40:32.519Z,990.75
2018-03-31T08:41:32.506Z,990.78
2018-03-31T08:42:32.491Z,990.79
2018-03-31T08:43:32.478Z,990.75
2018-03-31T08:44:32.477Z,990.75
2018-03-31T08:45:32.452Z,990.77
2018-03-31T08:46:32.439Z,990.77
2018-03-31T08:47:32.425Z,990.79
2018-03-31T08:48:32.413Z,990.75
2018-03-31T08:49:32.410Z,990.73
2018-03-31T08:50:32.389Z,990.70
2018-03-31T08:51:32.376Z,990.73
2018-03-31T08:52:32.362Z,990.71
2018-03-31T08:53:32.348Z,990.71
2018-03-31T08:54:32.351Z,990.72
2018-03-31T08:55:32.322Z,990.70
2018-03-31T08:56:32.317Z,990.74
2018-03-31T08:57:32.296Z,990.70
2018-03-31T08:58:32.282Z,990.71
2018-03-31T08:59:32.558Z,990.70
2018-03-31T09:00:32.257Z,990.73
2018-03-31T09:01:32.247Z,990.71
2018-03-31T09:02:32.233Z,990.72
2018-03-31T09:03:32.220Z,990.72
2018-03-31T09:04:32.207Z,990.71
2018-03-31T09:05:32.202Z,990.75
2018-03-31T09:06:32.180Z,990.73
2018-03-31T09:07:32.167Z,990.75
2018-03-31T09:08:32.154Z,990.76
2018-03-31T09:09:32.141Z,990.75
2018-03-31T09:10:32.137Z,990.70
2018-03-31T09:11:32.115Z,990.76
2018-03-31T09:12:32.103Z,990.74
2018-03-31T09:13:32.088Z,990.77
2018-03-31T09:14:32.076Z,990.74
2018-03-31T09:15:32.074Z,990.71
2018-03-31T09:16:32.051Z,990.73
2018-03-31T09:17:32.038Z,990.71
2018-03-31T09:18:32.024Z,990.73
2018-03-31T09:19:32.013Z,990.72
2018-03-31T09:20:32.010Z,990.70
2018-03-31T09:21:31.988Z,990.67
2018-03-31T09:22:31.973Z,990.69
2018-03-31T09:23:31.960Z,990.71
2018-03-31T09:24:31.950Z,990.72
2018-03-31T09:25:31.947Z,990.72
2018-03-31T09:26:31.922Z,990.72
2018-03-31T09:27:31.910Z,990.70
2018-03-31T09:28:31.897Z,990.67
2018-03-31T09:29:31.883Z,990.65
2018-03-31T09:30:31.885Z,990.67
2018-03-31T09:31:31.857Z,990.68
2018-03-31T09:32:31.846Z,990.67
2018-03-31T09:33:31.832Z,990.69
2018-03-31T09:34:31.820Z,990.71
2018-03-31T09:35:31.806Z,990.65
2018-03-31T09:36:31.816Z,990.63
2018-03-31T09:37:31.780Z,990.67
2018-03-31T09:38:31.767Z,990.63
2018-03-31T09:39:31.753Z,990.65
2018-03-31T09:40:31.742Z,990.60
2018-03-31T09:41:31.739Z,990.61
2018-03-31T09:42:31.714Z,990.62
2018-03-31T09:43:31.704Z,990.63
2018-03-31T09:44:31.691Z,990.63
2018-03-31T09:45:31.681Z,990.60
2018-03-31T09:46:31.677Z,990.65
2018-03-31T09:47:31.652Z,990.66
2018-03-31T09:48:31.638Z,990.64
2018-03-31T09:49:31.624Z,990.67
2018-03-31T09:50:31.614Z,990.68
2018-03-31T09:51:31.613Z,990.64
2018-03-31T09:52:31.587Z,990.69
2018-03-31T09:53:31.575Z,990.68
2018-03-31T09:54:31.560Z,990.68
2018-03-31T09:55:31.546Z,990.64
2018-03-31T09:56:31.539Z,990.65
2018-03-31T09:57:31.531Z,990.70
2018-03-31T09:58:31.512Z,990.68
2018-03-31T09:59:31.495Z,990.69
2018-03-31T10:00:31.483Z,990.71
2018-03-31T10:01:31.469Z,990.68
2018-03-31T10:02:31.466Z,990.70
2018-03-31T10:03:31.442Z,990.68
2018-03-31T10:04:31.432Z,990.70
2018-03-31T10:05:31.418Z,990.69
2018-03-31T10:06:31.410Z,990.70
2018-03-31T10:07:31.400Z,990.69
2018-03-31T10:08:31.376Z,990.70
2018-03-31T10:09:31.365Z,990.72
2018-03-31T10:10:31.351Z,990.74
2018-03-31T10:11:31.338Z,990.74
2018-03-31T10:12:31.352Z,990.77
2018-03-31T10:13:31.311Z,990.75
2018-03-31T10:14:31.302Z,990.76
2018-03-31T10:15:31.284Z,990.79
2018-03-31T10:16:31.273Z,990.80
2018-03-31T10:17:31.274Z,990.84
2018-03-31T10:18:31.248Z,990.82
2018-03-31T10:19:31.235Z,990.78
2018-03-31T10:20:31.221Z,990.83
2018-03-31T10:21:31.208Z,990.84
2018-03-31T10:22:31.217Z,990.86
2018-03-31T10:23:31.192Z,990.85
2018-03-31T10:24:31.169Z,990.85
2018-03-31T10:25:31.154Z,990.91
2018-03-31T10:26:31.142Z,990.86
2018-03-31T10:27:31.127Z,990.87
2018-03-31T10:28:31.127Z,990.88
2018-03-31T10:29:31.100Z,990.86
2018-03-31T10:30:31.086Z,990.86
2018-03-31T10:31:31.076Z,990.87
2018-03-31T10:32:31.061Z,990.87
2018-03-31T10:33:31.057Z,990.84
2018-03-31T10:34:31.036Z,990.89
2018-03-31T10:35:31.022Z,990.87
2018-03-31T10:36:31.059Z,990.86
2018-03-31T10:37:30.994Z,990.87
2018-03-31T10:38:30.991Z,990.88
2018-03-31T10:39:30.969Z,990.85
2018-03-31T10:40:30.955Z,990.85
2018-03-31T10:41:30.942Z,990.85
2018-03-31T10:42:30.931Z,990.85
2018-03-31T10:43:30.927Z,990.83
2018-03-31T10:44:30.901Z,990.84
2018-03-31T10:45:30.889Z,990.85
2018-03-31T10:46:30.875Z,990.83
2018-03-31T10:47:30.916Z,990.82
2018-03-31T10:48:30.862Z,990.80
2018-03-31T10:49:30.836Z,990.80
2018-03-31T10:50:30.822Z,990.80
2018-03-31T10:51:30.810Z,990.82
2018-03-31T10:52:30.796Z,990.81
2018-03-31T10:53:30.781Z,990.82
2018-03-31T10:54:30.777Z,990.80
2018-03-31T10:55:30.756Z,990.79
2018-03-31T10:56:30.743Z,990.79
2018-03-31T10:57:30.727Z,990.79
2018-03-31T10:58:30.715Z,990.81
2018-03-31T10:59:30.711Z,990.79
2018-03-31T11:00:30.689Z,990.81
2018-03-31T11:01:30.675Z,990.80
2018-03-31T11:02:30.662Z,990.85
2018-03-31T11:03:30.648Z,990.86
2018-03-31T11:04:30.646Z,990.83
2018-03-31T11:05:30.659Z,990.82
2018-03-31T11:06:30.608Z,990.82
2018-03-31T11:07:30.594Z,990.80
2018-03-31T11:08:30.582Z,990.84
2018-03-31T11:09:30.577Z,990.82
2018-03-31T11:10:30.555Z,990.83
2018-03-31T11:11:30.542Z,990.81
2018-03-31T11:12:30.528Z,990.80
2018-03-31T11:13:30.514Z,990.83
2018-03-31T11:14:30.537Z,990.81
2018-03-31T11:15:30.487Z,990.79
2018-03-31T11:16:30.475Z,990.78
2018-03-31T11:17:30.460Z,990.84
2018-03-31T11:18:30.447Z,990.80
2018-03-31T11:19:30.434Z,990.83
2018-03-31T11:20:30.433Z,990.79
2018-03-31T11:21:30.406Z,990.85
2018-03-31T11:22:30.394Z,990.84
2018-03-31T11:23:30.380Z,990.83
2018-03-31T11:24:30.368Z,990.80
2018-03-31T11:25:30.374Z,990.83
2018-03-31T11:26:30.340Z,990.83
2018-03-31T11:27:30.327Z,990.82
2018-03-31T11:28:30.326Z,990.82
2018-03-31T11:29:30.299Z,990.79
2018-03-31T11:30:30.298Z,990.77
2018-03-31T11:31:30.271Z,990.80
2018-03-31T11:32:30.260Z,990.76
2018-03-31T11:33:30.248Z,990.72
2018-03-31T11:34:30.232Z,990.73
2018-03-31T11:35:30.230Z,990.76
2018-03-31T11:36:30.208Z,990.73
2018-03-31T11:37:30.193Z,990.73
2018-03-31T11:38:30.179Z,990.74
2018-03-31T11:39:30.170Z,990.74
2018-03-31T11:40:30.164Z,990.70
2018-03-31T11:41:30.142Z,990.73
2018-03-31T11:42:30.126Z,990.68
2018-03-31T11:43:30.112Z,990.68
2018-03-31T11:44:30.100Z,990.70
2018-03-31T11:45:30.101Z,990.68
2018-03-31T11:46:30.071Z,990.69
2018-03-31T11:47:30.059Z,990.69
2018-03-31T11:48:30.045Z,990.65
2018-03-31T11:49:30.031Z,990.63
2018-03-31T11:50:30.019Z,990.62
2018-03-31T11:51:30.015Z,990.60
2018-03-31T11:52:29.991Z,990.64
2018-03-31T11:53:29.976Z,990.59
2018-03-31T11:54:29.966Z,990.58
2018-03-31T11:55:29.950Z,990.61
2018-03-31T11:56:29.949Z,990.58
2018-03-31T11:57:29.929Z,990.57
2018-03-31T11:58:29.909Z,990.59
2018-03-31T11:59:29.905Z,990.61
2018-03-31T12:00:29.884Z,990.60
2018-03-31T12:01:29.890Z,990.58
2018-03-31T12:02:29.857Z,990.62
2018-03-31T12:03:29.843Z,990.64
2018-03-31T12:04:29.830Z,990.63
2018-03-31T12:05:29.815Z,990.64
2018-03-31T12:06:29.814Z,990.59
2018-03-31T12:07:29.790Z,990.63
2018-03-31T12:08:29.776Z,990.67
2018-03-31T12:09:29.762Z,990.62
2018-03-31T12:10:29.749Z,990.61
2018-03-31T12:11:29.752Z,990.67
2018-03-31T12:12:29.726Z,990.63
2018-03-31T12:13:29.709Z,990.66
2018-03-31T12:14:29.696Z,990.63
2018-03-31T12:15:29.682Z,990.68
2018-03-31T12:16:29.668Z,990.67
2018-03-31T12:17:29.665Z,990.66
2018-03-31T12:18:29.642Z,990.70
2018-03-31T12:19:29.628Z,990.67
2018-03-31T12:20:29.616Z,990.63
2018-03-31T12:21:29.601Z,990.66
2018-03-31T12:22:29.599Z,990.65
2018-03-31T12:23:29.575Z,990.60
2018-03-31T12:24:29.566Z,990.64
2018-03-31T12:25:29.546Z,990.63
2018-03-31T12:26:29.534Z,990.62
2018-03-31T12:27:29.531Z,990.60
2018-03-31T12:28:29.508Z,990.58